sensor_id;sensor_type;location;lat;lon;timestamp;P1;durP1;ratioP1;P2;durP2;ratioP2
49223;SDS011;35050;51.316;5.994;2023-08-24T00:01:09;3.20;;;1.48;;
49223;SDS011;35050;51.316;5.994;2023-08-24T00:03:37;1.70;;;1.60;;
49223;SDS011;35050;51.316;5.994;2023-08-24T00:06:03;3.03;;;1.65;;
49223;SDS011;35050;51.316;5.994;2023-08-24T00:08:29;2.35;;;1.48;;
49223;SDS011;35050;51.316;5.994;2023-08-24T00:10:55;1.80;;;1.33;;
49223;SDS011;35050;51.316;5.994;2023-08-24T00:13:20;2.20;;;1.58;;
49223;SDS011;35050;51.316;5.994;2023-08-24T00:15:46;3.33;;;2.10;;
49223;SDS011;35050;51.316;5.994;2023-08-24T00:18:12;4.00;;;1.70;;
49223;SDS011;35050;51.316;5.994;2023-08-24T00:20:37;3.70;;;1.50;;
49223;SDS011;35050;51.316;5.994;2023-08-24T00:23:03;3.30;;;1.70;;
49223;SDS011;35050;51.316;5.994;2023-08-24T00:25:32;3.60;;;1.60;;
49223;SDS011;35050;51.316;5.994;2023-08-24T00:27:57;2.63;;;1.80;;
49223;SDS011;35050;51.316;5.994;2023-08-24T00:30:23;2.78;;;1.55;;
49223;SDS011;35050;51.316;5.994;2023-08-24T00:32:49;2.05;;;1.30;;
49223;SDS011;35050;51.316;5.994;2023-08-24T00:35:15;1.88;;;1.38;;
49223;SDS011;35050;51.316;5.994;2023-08-24T00:37:41;1.92;;;1.40;;
49223;SDS011;35050;51.316;5.994;2023-08-24T00:40:07;3.35;;;1.60;;
49223;SDS011;35050;51.316;5.994;2023-08-24T00:42:39;1.52;;;1.42;;
49223;SDS011;35050;51.316;5.994;2023-08-24T00:45:06;1.85;;;1.58;;
49223;SDS011;35050;51.316;5.994;2023-08-24T00:47:34;4.57;;;1.70;;
49223;SDS011;35050;51.316;5.994;2023-08-24T00:50:01;2.72;;;1.67;;
49223;SDS011;35050;51.316;5.994;2023-08-24T00:52:28;1.98;;;1.55;;
49223;SDS011;35050;51.316;5.994;2023-08-24T00:54:57;2.78;;;1.80;;
49223;SDS011;35050;51.316;5.994;2023-08-24T00:57:29;2.83;;;1.58;;
49223;SDS011;35050;51.316;5.994;2023-08-24T00:59:55;1.67;;;1.42;;
49223;SDS011;35050;51.316;5.994;2023-08-24T01:02:21;2.95;;;1.83;;
49223;SDS011;35050;51.316;5.994;2023-08-24T01:04:47;2.55;;;1.90;;
49223;SDS011;35050;51.316;5.994;2023-08-24T01:07:13;2.10;;;1.73;;
49223;SDS011;35050;51.316;5.994;2023-08-24T01:09:40;2.15;;;1.55;;
49223;SDS011;35050;51.316;5.994;2023-08-24T01:12:15;1.88;;;1.60;;
49223;SDS011;35050;51.316;5.994;2023-08-24T01:15:05;1.88;;;1.40;;
49223;SDS011;35050;51.316;5.994;2023-08-24T01:17:37;2.30;;;1.55;;
49223;SDS011;35050;51.316;5.994;2023-08-24T01:20:05;1.90;;;1.70;;
49223;SDS011;35050;51.316;5.994;2023-08-24T01:22:44;3.25;;;1.98;;
49223;SDS011;35050;51.316;5.994;2023-08-24T01:27:59;3.17;;;1.75;;
49223;SDS011;35050;51.316;5.994;2023-08-24T01:30:27;2.92;;;1.60;;
49223;SDS011;35050;51.316;5.994;2023-08-24T01:32:54;2.47;;;1.73;;
49223;SDS011;35050;51.316;5.994;2023-08-24T01:35:19;2.50;;;1.70;;
49223;SDS011;35050;51.316;5.994;2023-08-24T01:37:45;3.75;;;1.77;;
49223;SDS011;35050;51.316;5.994;2023-08-24T01:42:52;1.77;;;1.42;;
49223;SDS011;35050;51.316;5.994;2023-08-24T01:45:24;2.75;;;1.73;;
49223;SDS011;35050;51.316;5.994;2023-08-24T01:47:52;3.10;;;1.67;;
49223;SDS011;35050;51.316;5.994;2023-08-24T01:50:20;2.72;;;1.52;;
49223;SDS011;35050;51.316;5.994;2023-08-24T01:52:46;3.40;;;2.17;;
49223;SDS011;35050;51.316;5.994;2023-08-24T01:55:12;2.47;;;1.90;;
49223;SDS011;35050;51.316;5.994;2023-08-24T01:57:38;3.03;;;1.75;;
49223;SDS011;35050;51.316;5.994;2023-08-24T02:00:04;2.15;;;1.52;;
49223;SDS011;35050;51.316;5.994;2023-08-24T02:02:34;1.95;;;1.75;;
49223;SDS011;35050;51.316;5.994;2023-08-24T02:05:01;2.65;;;1.83;;
49223;SDS011;35050;51.316;5.994;2023-08-24T02:07:30;2.60;;;1.80;;
49223;SDS011;35050;51.316;5.994;2023-08-24T02:09:55;2.70;;;2.00;;
49223;SDS011;35050;51.316;5.994;2023-08-24T02:12:21;3.35;;;1.88;;
49223;SDS011;35050;51.316;5.994;2023-08-24T02:14:47;5.60;;;2.10;;
49223;SDS011;35050;51.316;5.994;2023-08-24T02:17:12;3.42;;;2.30;;
49223;SDS011;35050;51.316;5.994;2023-08-24T02:19:39;2.08;;;1.88;;
49223;SDS011;35050;51.316;5.994;2023-08-24T02:22:06;4.18;;;2.00;;
49223;SDS011;35050;51.316;5.994;2023-08-24T02:24:32;2.55;;;1.85;;
49223;SDS011;35050;51.316;5.994;2023-08-24T02:26:58;3.10;;;2.00;;
49223;SDS011;35050;51.316;5.994;2023-08-24T02:29:24;3.22;;;2.05;;
49223;SDS011;35050;51.316;5.994;2023-08-24T02:31:50;3.15;;;1.92;;
49223;SDS011;35050;51.316;5.994;2023-08-24T02:34:16;2.80;;;1.80;;
49223;SDS011;35050;51.316;5.994;2023-08-24T02:36:41;3.00;;;2.00;;
49223;SDS011;35050;51.316;5.994;2023-08-24T02:39:07;2.72;;;1.98;;
49223;SDS011;35050;51.316;5.994;2023-08-24T02:41:33;3.72;;;2.22;;
49223;SDS011;35050;51.316;5.994;2023-08-24T02:44:00;4.45;;;2.03;;
49223;SDS011;35050;51.316;5.994;2023-08-24T02:46:26;3.13;;;2.38;;
49223;SDS011;35050;51.316;5.994;2023-08-24T02:48:51;2.47;;;2.15;;
49223;SDS011;35050;51.316;5.994;2023-08-24T02:51:17;2.67;;;2.30;;
49223;SDS011;35050;51.316;5.994;2023-08-24T02:53:46;2.80;;;2.10;;
49223;SDS011;35050;51.316;5.994;2023-08-24T02:56:11;3.55;;;2.10;;
49223;SDS011;35050;51.316;5.994;2023-08-24T02:58:37;2.65;;;2.15;;
49223;SDS011;35050;51.316;5.994;2023-08-24T03:01:06;4.80;;;2.15;;
49223;SDS011;35050;51.316;5.994;2023-08-24T03:03:35;3.08;;;2.40;;
49223;SDS011;35050;51.316;5.994;2023-08-24T03:06:05;4.72;;;2.40;;
49223;SDS011;35050;51.316;5.994;2023-08-24T03:08:33;2.05;;;1.65;;
49223;SDS011;35050;51.316;5.994;2023-08-24T03:10:59;3.67;;;2.05;;
49223;SDS011;35050;51.316;5.994;2023-08-24T03:13:26;3.08;;;2.20;;
49223;SDS011;35050;51.316;5.994;2023-08-24T03:15:52;2.67;;;2.13;;
49223;SDS011;35050;51.316;5.994;2023-08-24T03:18:18;2.80;;;2.33;;
49223;SDS011;35050;51.316;5.994;2023-08-24T03:20:45;3.03;;;2.22;;
49223;SDS011;35050;51.316;5.994;2023-08-24T03:23:11;3.60;;;2.25;;
49223;SDS011;35050;51.316;5.994;2023-08-24T03:25:38;3.03;;;2.28;;
49223;SDS011;35050;51.316;5.994;2023-08-24T03:28:05;4.20;;;2.42;;
49223;SDS011;35050;51.316;5.994;2023-08-24T03:30:33;3.42;;;2.38;;
49223;SDS011;35050;51.316;5.994;2023-08-24T03:33:00;3.28;;;2.47;;
49223;SDS011;35050;51.316;5.994;2023-08-24T03:35:27;3.70;;;2.17;;
49223;SDS011;35050;51.316;5.994;2023-08-24T03:37:53;4.10;;;2.20;;
49223;SDS011;35050;51.316;5.994;2023-08-24T03:40:18;3.85;;;2.30;;
49223;SDS011;35050;51.316;5.994;2023-08-24T03:42:44;3.47;;;2.28;;
49223;SDS011;35050;51.316;5.994;2023-08-24T03:45:10;4.38;;;2.88;;
49223;SDS011;35050;51.316;5.994;2023-08-24T03:47:35;4.22;;;2.60;;
49223;SDS011;35050;51.316;5.994;2023-08-24T03:50:01;4.93;;;2.85;;
49223;SDS011;35050;51.316;5.994;2023-08-24T03:52:27;3.83;;;2.92;;
49223;SDS011;35050;51.316;5.994;2023-08-24T03:54:52;3.95;;;2.70;;
49223;SDS011;35050;51.316;5.994;2023-08-24T03:57:18;3.30;;;3.00;;
49223;SDS011;35050;51.316;5.994;2023-08-24T03:59:43;4.97;;;3.28;;
49223;SDS011;35050;51.316;5.994;2023-08-24T04:02:09;4.95;;;3.40;;
49223;SDS011;35050;51.316;5.994;2023-08-24T04:04:35;7.32;;;3.72;;
49223;SDS011;35050;51.316;5.994;2023-08-24T04:07:00;5.90;;;3.20;;
49223;SDS011;35050;51.316;5.994;2023-08-24T04:09:27;6.15;;;3.92;;
49223;SDS011;35050;51.316;5.994;2023-08-24T04:11:54;6.70;;;3.90;;
49223;SDS011;35050;51.316;5.994;2023-08-24T04:14:19;5.97;;;4.10;;
49223;SDS011;35050;51.316;5.994;2023-08-24T04:16:45;4.65;;;3.60;;
49223;SDS011;35050;51.316;5.994;2023-08-24T04:19:11;3.42;;;3.08;;
49223;SDS011;35050;51.316;5.994;2023-08-24T04:21:36;4.68;;;3.30;;
49223;SDS011;35050;51.316;5.994;2023-08-24T04:24:02;4.75;;;3.60;;
49223;SDS011;35050;51.316;5.994;2023-08-24T04:26:28;4.20;;;3.15;;
49223;SDS011;35050;51.316;5.994;2023-08-24T04:28:53;4.03;;;3.47;;
49223;SDS011;35050;51.316;5.994;2023-08-24T04:31:19;3.45;;;2.95;;
49223;SDS011;35050;51.316;5.994;2023-08-24T04:33:45;4.00;;;3.33;;
49223;SDS011;35050;51.316;5.994;2023-08-24T04:36:10;4.32;;;3.13;;
49223;SDS011;35050;51.316;5.994;2023-08-24T04:38:36;4.03;;;3.28;;
49223;SDS011;35050;51.316;5.994;2023-08-24T04:41:02;3.20;;;2.85;;
49223;SDS011;35050;51.316;5.994;2023-08-24T04:43:32;4.82;;;3.20;;
49223;SDS011;35050;51.316;5.994;2023-08-24T04:45:58;5.25;;;3.40;;
49223;SDS011;35050;51.316;5.994;2023-08-24T04:48:24;3.60;;;3.10;;
49223;SDS011;35050;51.316;5.994;2023-08-24T04:50:51;3.35;;;3.03;;
49223;SDS011;35050;51.316;5.994;2023-08-24T04:53:21;3.97;;;2.95;;
49223;SDS011;35050;51.316;5.994;2023-08-24T04:55:47;5.00;;;3.00;;
49223;SDS011;35050;51.316;5.994;2023-08-24T04:58:12;3.97;;;3.05;;
49223;SDS011;35050;51.316;5.994;2023-08-24T05:00:38;3.88;;;3.20;;
49223;SDS011;35050;51.316;5.994;2023-08-24T05:03:05;4.40;;;3.13;;
49223;SDS011;35050;51.316;5.994;2023-08-24T05:05:31;6.93;;;3.80;;
49223;SDS011;35050;51.316;5.994;2023-08-24T05:07:58;7.07;;;4.30;;
49223;SDS011;35050;51.316;5.994;2023-08-24T05:10:24;5.13;;;4.00;;
49223;SDS011;35050;51.316;5.994;2023-08-24T05:12:50;4.07;;;3.55;;
49223;SDS011;35050;51.316;5.994;2023-08-24T05:15:16;4.85;;;3.28;;
49223;SDS011;35050;51.316;5.994;2023-08-24T05:17:42;6.32;;;4.00;;
49223;SDS011;35050;51.316;5.994;2023-08-24T05:20:08;3.78;;;3.30;;
49223;SDS011;35050;51.316;5.994;2023-08-24T05:22:35;3.20;;;2.90;;
49223;SDS011;35050;51.316;5.994;2023-08-24T05:25:01;3.95;;;3.38;;
49223;SDS011;35050;51.316;5.994;2023-08-24T05:27:27;5.18;;;3.08;;
49223;SDS011;35050;51.316;5.994;2023-08-24T05:29:53;3.58;;;2.92;;
49223;SDS011;35050;51.316;5.994;2023-08-24T05:32:19;4.28;;;3.10;;
49223;SDS011;35050;51.316;5.994;2023-08-24T05:34:45;2.80;;;2.60;;
49223;SDS011;35050;51.316;5.994;2023-08-24T05:37:11;3.72;;;2.80;;
49223;SDS011;35050;51.316;5.994;2023-08-24T05:39:36;2.95;;;2.65;;
49223;SDS011;35050;51.316;5.994;2023-08-24T05:42:02;3.88;;;2.58;;
49223;SDS011;35050;51.316;5.994;2023-08-24T05:44:28;6.47;;;2.80;;
49223;SDS011;35050;51.316;5.994;2023-08-24T05:46:53;3.78;;;2.88;;
49223;SDS011;35050;51.316;5.994;2023-08-24T05:49:19;4.80;;;2.70;;
49223;SDS011;35050;51.316;5.994;2023-08-24T05:51:44;3.03;;;2.58;;
49223;SDS011;35050;51.316;5.994;2023-08-24T05:54:10;5.13;;;2.58;;
49223;SDS011;35050;51.316;5.994;2023-08-24T05:56:36;3.55;;;2.60;;
49223;SDS011;35050;51.316;5.994;2023-08-24T05:59:01;3.58;;;2.72;;
49223;SDS011;35050;51.316;5.994;2023-08-24T06:01:27;3.40;;;2.60;;
49223;SDS011;35050;51.316;5.994;2023-08-24T06:03:53;4.57;;;2.65;;
49223;SDS011;35050;51.316;5.994;2023-08-24T06:06:19;3.33;;;3.00;;
49223;SDS011;35050;51.316;5.994;2023-08-24T06:08:44;4.22;;;3.83;;
49223;SDS011;35050;51.316;5.994;2023-08-24T06:11:10;3.78;;;3.13;;
49223;SDS011;35050;51.316;5.994;2023-08-24T06:13:35;3.22;;;2.72;;
49223;SDS011;35050;51.316;5.994;2023-08-24T06:16:01;3.00;;;2.70;;
49223;SDS011;35050;51.316;5.994;2023-08-24T06:18:27;3.30;;;2.50;;
49223;SDS011;35050;51.316;5.994;2023-08-24T06:20:53;4.38;;;2.88;;
49223;SDS011;35050;51.316;5.994;2023-08-24T06:23:19;2.75;;;2.50;;
49223;SDS011;35050;51.316;5.994;2023-08-24T06:25:45;3.42;;;2.70;;
49223;SDS011;35050;51.316;5.994;2023-08-24T06:28:11;4.25;;;2.92;;
49223;SDS011;35050;51.316;5.994;2023-08-24T06:30:40;3.58;;;2.38;;
49223;SDS011;35050;51.316;5.994;2023-08-24T06:33:08;3.30;;;2.65;;
49223;SDS011;35050;51.316;5.994;2023-08-24T06:35:35;2.83;;;2.28;;
49223;SDS011;35050;51.316;5.994;2023-08-24T06:38:02;3.60;;;2.72;;
49223;SDS011;35050;51.316;5.994;2023-08-24T06:40:28;3.38;;;2.60;;
49223;SDS011;35050;51.316;5.994;2023-08-24T06:42:55;5.00;;;2.53;;
49223;SDS011;35050;51.316;5.994;2023-08-24T06:45:21;6.25;;;2.67;;
49223;SDS011;35050;51.316;5.994;2023-08-24T06:47:47;5.20;;;2.80;;
49223;SDS011;35050;51.316;5.994;2023-08-24T06:50:12;4.22;;;2.75;;
49223;SDS011;35050;51.316;5.994;2023-08-24T06:52:40;4.32;;;2.88;;
49223;SDS011;35050;51.316;5.994;2023-08-24T06:55:07;8.27;;;3.08;;
49223;SDS011;35050;51.316;5.994;2023-08-24T06:57:34;7.85;;;3.15;;
49223;SDS011;35050;51.316;5.994;2023-08-24T07:00:00;3.70;;;2.50;;
49223;SDS011;35050;51.316;5.994;2023-08-24T07:02:25;5.28;;;2.47;;
49223;SDS011;35050;51.316;5.994;2023-08-24T07:04:51;5.90;;;3.00;;
49223;SDS011;35050;51.316;5.994;2023-08-24T07:07:16;7.22;;;2.38;;
49223;SDS011;35050;51.316;5.994;2023-08-24T07:09:42;5.95;;;2.53;;
49223;SDS011;35050;51.316;5.994;2023-08-24T07:12:08;7.55;;;2.63;;
49223;SDS011;35050;51.316;5.994;2023-08-24T07:14:38;8.18;;;2.72;;
49223;SDS011;35050;51.316;5.994;2023-08-24T07:17:03;5.30;;;2.10;;
49223;SDS011;35050;51.316;5.994;2023-08-24T07:19:31;4.47;;;2.53;;
49223;SDS011;35050;51.316;5.994;2023-08-24T07:21:56;3.85;;;2.15;;
49223;SDS011;35050;51.316;5.994;2023-08-24T07:24:22;3.28;;;2.50;;
49223;SDS011;35050;51.316;5.994;2023-08-24T07:26:51;4.57;;;2.53;;
49223;SDS011;35050;51.316;5.994;2023-08-24T07:29:17;2.72;;;1.98;;
49223;SDS011;35050;51.316;5.994;2023-08-24T07:31:43;2.65;;;1.77;;
49223;SDS011;35050;51.316;5.994;2023-08-24T07:34:09;4.13;;;2.10;;
49223;SDS011;35050;51.316;5.994;2023-08-24T07:36:35;5.10;;;2.20;;
49223;SDS011;35050;51.316;5.994;2023-08-24T07:39:00;3.55;;;2.10;;
49223;SDS011;35050;51.316;5.994;2023-08-24T07:41:26;3.17;;;1.90;;
49223;SDS011;35050;51.316;5.994;2023-08-24T07:43:51;3.90;;;1.80;;
49223;SDS011;35050;51.316;5.994;2023-08-24T07:46:17;4.82;;;2.10;;
49223;SDS011;35050;51.316;5.994;2023-08-24T07:48:43;4.35;;;1.90;;
49223;SDS011;35050;51.316;5.994;2023-08-24T07:51:08;4.93;;;2.13;;
49223;SDS011;35050;51.316;5.994;2023-08-24T07:53:34;3.58;;;2.08;;
49223;SDS011;35050;51.316;5.994;2023-08-24T07:56:00;2.05;;;1.73;;
49223;SDS011;35050;51.316;5.994;2023-08-24T07:58:26;3.80;;;2.15;;
49223;SDS011;35050;51.316;5.994;2023-08-24T08:00:52;4.18;;;2.20;;
49223;SDS011;35050;51.316;5.994;2023-08-24T08:03:18;3.35;;;2.35;;
49223;SDS011;35050;51.316;5.994;2023-08-24T08:05:45;6.05;;;2.13;;
49223;SDS011;35050;51.316;5.994;2023-08-24T08:08:15;1.83;;;1.70;;
49223;SDS011;35050;51.316;5.994;2023-08-24T08:10:41;2.30;;;1.92;;
49223;SDS011;35050;51.316;5.994;2023-08-24T08:13:07;2.58;;;1.88;;
49223;SDS011;35050;51.316;5.994;2023-08-24T08:15:35;4.65;;;1.98;;
49223;SDS011;35050;51.316;5.994;2023-08-24T08:18:03;3.42;;;1.90;;
49223;SDS011;35050;51.316;5.994;2023-08-24T08:20:29;3.17;;;2.17;;
49223;SDS011;35050;51.316;5.994;2023-08-24T08:22:55;2.85;;;1.90;;
49223;SDS011;35050;51.316;5.994;2023-08-24T08:25:21;2.95;;;1.80;;
49223;SDS011;35050;51.316;5.994;2023-08-24T08:27:47;4.28;;;1.67;;
49223;SDS011;35050;51.316;5.994;2023-08-24T08:30:13;3.13;;;1.63;;
49223;SDS011;35050;51.316;5.994;2023-08-24T08:32:40;1.83;;;1.58;;
49223;SDS011;35050;51.316;5.994;2023-08-24T08:35:06;2.97;;;1.70;;
49223;SDS011;35050;51.316;5.994;2023-08-24T08:37:33;2.92;;;1.73;;
49223;SDS011;35050;51.316;5.994;2023-08-24T08:39:59;3.28;;;1.90;;
49223;SDS011;35050;51.316;5.994;2023-08-24T08:42:24;3.08;;;2.08;;
49223;SDS011;35050;51.316;5.994;2023-08-24T08:44:50;2.50;;;1.88;;
49223;SDS011;35050;51.316;5.994;2023-08-24T08:47:19;2.72;;;1.80;;
49223;SDS011;35050;51.316;5.994;2023-08-24T08:49:47;2.20;;;1.70;;
49223;SDS011;35050;51.316;5.994;2023-08-24T08:52:13;3.55;;;2.08;;
49223;SDS011;35050;51.316;5.994;2023-08-24T08:54:39;4.38;;;2.10;;
49223;SDS011;35050;51.316;5.994;2023-08-24T08:57:05;3.72;;;2.20;;
49223;SDS011;35050;51.316;5.994;2023-08-24T08:59:31;1.95;;;1.77;;
49223;SDS011;35050;51.316;5.994;2023-08-24T09:02:02;3.13;;;2.13;;
49223;SDS011;35050;51.316;5.994;2023-08-24T09:04:31;3.38;;;2.33;;
49223;SDS011;35050;51.316;5.994;2023-08-24T09:06:57;3.53;;;1.95;;
49223;SDS011;35050;51.316;5.994;2023-08-24T09:09:26;2.72;;;2.03;;
49223;SDS011;35050;51.316;5.994;2023-08-24T09:11:52;4.30;;;2.40;;
49223;SDS011;35050;51.316;5.994;2023-08-24T09:14:18;3.63;;;1.80;;
49223;SDS011;35050;51.316;5.994;2023-08-24T09:16:44;2.97;;;2.17;;
49223;SDS011;35050;51.316;5.994;2023-08-24T09:19:13;2.47;;;2.00;;
49223;SDS011;35050;51.316;5.994;2023-08-24T09:21:39;2.38;;;1.90;;
49223;SDS011;35050;51.316;5.994;2023-08-24T09:24:06;2.95;;;2.10;;
49223;SDS011;35050;51.316;5.994;2023-08-24T09:26:34;2.90;;;2.00;;
49223;SDS011;35050;51.316;5.994;2023-08-24T09:29:10;4.88;;;2.25;;
49223;SDS011;35050;51.316;5.994;2023-08-24T09:31:39;3.70;;;2.17;;
49223;SDS011;35050;51.316;5.994;2023-08-24T09:34:06;3.22;;;2.13;;
49223;SDS011;35050;51.316;5.994;2023-08-24T09:36:32;3.75;;;2.30;;
49223;SDS011;35050;51.316;5.994;2023-08-24T09:39:00;3.53;;;2.15;;
49223;SDS011;35050;51.316;5.994;2023-08-24T09:41:39;2.95;;;2.10;;
49223;SDS011;35050;51.316;5.994;2023-08-24T09:44:06;3.28;;;2.28;;
49223;SDS011;35050;51.316;5.994;2023-08-24T09:46:32;3.85;;;2.25;;
49223;SDS011;35050;51.316;5.994;2023-08-24T09:48:58;3.05;;;2.10;;
49223;SDS011;35050;51.316;5.994;2023-08-24T09:51:28;3.70;;;2.22;;
49223;SDS011;35050;51.316;5.994;2023-08-24T09:53:56;3.50;;;1.90;;
49223;SDS011;35050;51.316;5.994;2023-08-24T09:56:25;3.20;;;1.73;;
49223;SDS011;35050;51.316;5.994;2023-08-24T09:58:54;1.92;;;1.60;;
49223;SDS011;35050;51.316;5.994;2023-08-24T10:01:22;3.15;;;1.92;;
49223;SDS011;35050;51.316;5.994;2023-08-24T10:03:50;4.43;;;1.83;;
49223;SDS011;35050;51.316;5.994;2023-08-24T10:06:21;3.63;;;1.92;;
49223;SDS011;35050;51.316;5.994;2023-08-24T10:08:55;3.78;;;2.05;;
49223;SDS011;35050;51.316;5.994;2023-08-24T10:11:26;3.40;;;1.90;;
49223;SDS011;35050;51.316;5.994;2023-08-24T10:14:07;2.05;;;1.80;;
49223;SDS011;35050;51.316;5.994;2023-08-24T10:16:40;2.42;;;1.70;;
49223;SDS011;35050;51.316;5.994;2023-08-24T10:19:07;6.30;;;1.75;;
49223;SDS011;35050;51.316;5.994;2023-08-24T10:21:33;1.63;;;1.52;;
49223;SDS011;35050;51.316;5.994;2023-08-24T10:24:02;2.83;;;1.95;;
49223;SDS011;35050;51.316;5.994;2023-08-24T10:26:28;3.30;;;2.00;;
49223;SDS011;35050;51.316;5.994;2023-08-24T10:28:54;2.13;;;1.50;;
49223;SDS011;35050;51.316;5.994;2023-08-24T10:31:21;2.38;;;1.73;;
49223;SDS011;35050;51.316;5.994;2023-08-24T10:33:47;3.08;;;1.70;;
49223;SDS011;35050;51.316;5.994;2023-08-24T10:36:13;2.70;;;1.75;;
49223;SDS011;35050;51.316;5.994;2023-08-24T10:38:40;2.47;;;1.67;;
49223;SDS011;35050;51.316;5.994;2023-08-24T10:41:09;3.83;;;1.80;;
49223;SDS011;35050;51.316;5.994;2023-08-24T10:43:39;2.42;;;1.70;;
49223;SDS011;35050;51.316;5.994;2023-08-24T10:46:12;2.08;;;1.83;;
49223;SDS011;35050;51.316;5.994;2023-08-24T10:53:44;2.20;;;1.60;;
49223;SDS011;35050;51.316;5.994;2023-08-24T10:56:11;2.25;;;1.45;;
49223;SDS011;35050;51.316;5.994;2023-08-24T10:58:38;2.13;;;1.38;;
49223;SDS011;35050;51.316;5.994;2023-08-24T11:01:03;1.90;;;1.67;;
49223;SDS011;35050;51.316;5.994;2023-08-24T11:03:32;2.15;;;1.70;;
49223;SDS011;35050;51.316;5.994;2023-08-24T11:05:59;3.10;;;1.48;;
49223;SDS011;35050;51.316;5.994;2023-08-24T11:08:43;2.15;;;1.67;;
49223;SDS011;35050;51.316;5.994;2023-08-24T11:16:51;3.38;;;1.75;;
49223;SDS011;35050;51.316;5.994;2023-08-24T11:19:17;2.28;;;1.75;;
49223;SDS011;35050;51.316;5.994;2023-08-24T11:21:43;3.28;;;2.03;;
49223;SDS011;35050;51.316;5.994;2023-08-24T11:24:12;2.10;;;1.63;;
49223;SDS011;35050;51.316;5.994;2023-08-24T11:26:46;2.22;;;1.60;;
49223;SDS011;35050;51.316;5.994;2023-08-24T11:29:12;5.47;;;2.28;;
49223;SDS011;35050;51.316;5.994;2023-08-24T11:31:38;6.22;;;2.20;;
49223;SDS011;35050;51.316;5.994;2023-08-24T11:34:05;3.78;;;2.05;;
49223;SDS011;35050;51.316;5.994;2023-08-24T11:36:40;4.88;;;2.38;;
49223;SDS011;35050;51.316;5.994;2023-08-24T11:39:18;5.55;;;2.25;;
49223;SDS011;35050;51.316;5.994;2023-08-24T11:41:55;3.50;;;2.08;;
49223;SDS011;35050;51.316;5.994;2023-08-24T11:44:29;3.42;;;1.95;;
49223;SDS011;35050;51.316;5.994;2023-08-24T11:47:09;3.53;;;2.30;;
49223;SDS011;35050;51.316;5.994;2023-08-24T11:49:35;3.25;;;2.20;;
49223;SDS011;35050;51.316;5.994;2023-08-24T11:52:00;5.00;;;2.60;;
49223;SDS011;35050;51.316;5.994;2023-08-24T11:54:27;3.42;;;2.70;;
49223;SDS011;35050;51.316;5.994;2023-08-24T11:56:52;2.65;;;1.98;;
49223;SDS011;35050;51.316;5.994;2023-08-24T11:59:18;5.95;;;2.38;;
49223;SDS011;35050;51.316;5.994;2023-08-24T12:01:44;3.53;;;2.08;;
49223;SDS011;35050;51.316;5.994;2023-08-24T12:04:11;2.95;;;1.80;;
49223;SDS011;35050;51.316;5.994;2023-08-24T12:06:37;5.13;;;2.70;;
49223;SDS011;35050;51.316;5.994;2023-08-24T12:09:05;3.17;;;1.77;;
49223;SDS011;35050;51.316;5.994;2023-08-24T12:11:34;1.95;;;1.50;;
49223;SDS011;35050;51.316;5.994;2023-08-24T12:14:01;2.65;;;1.75;;
49223;SDS011;35050;51.316;5.994;2023-08-24T12:16:26;2.42;;;1.88;;
49223;SDS011;35050;51.316;5.994;2023-08-24T12:18:56;1.95;;;1.75;;
49223;SDS011;35050;51.316;5.994;2023-08-24T12:21:24;1.98;;;1.50;;
49223;SDS011;35050;51.316;5.994;2023-08-24T12:24:03;5.20;;;1.70;;
49223;SDS011;35050;51.316;5.994;2023-08-24T12:26:31;2.97;;;2.00;;
49223;SDS011;35050;51.316;5.994;2023-08-24T12:29:08;2.85;;;1.85;;
49223;SDS011;35050;51.316;5.994;2023-08-24T12:31:34;2.72;;;2.00;;
49223;SDS011;35050;51.316;5.994;2023-08-24T12:34:05;3.90;;;2.13;;
49223;SDS011;35050;51.316;5.994;2023-08-24T12:36:36;3.90;;;2.30;;
49223;SDS011;35050;51.316;5.994;2023-08-24T12:39:03;3.15;;;2.10;;
49223;SDS011;35050;51.316;5.994;2023-08-24T12:41:29;3.05;;;1.88;;
49223;SDS011;35050;51.316;5.994;2023-08-24T12:43:55;4.45;;;2.08;;
49223;SDS011;35050;51.316;5.994;2023-08-24T12:46:21;3.28;;;2.05;;
49223;SDS011;35050;51.316;5.994;2023-08-24T12:48:47;4.43;;;2.20;;
49223;SDS011;35050;51.316;5.994;2023-08-24T12:51:12;3.42;;;1.90;;
49223;SDS011;35050;51.316;5.994;2023-08-24T12:53:38;2.50;;;1.80;;
49223;SDS011;35050;51.316;5.994;2023-08-24T12:56:04;5.43;;;2.20;;
49223;SDS011;35050;51.316;5.994;2023-08-24T12:58:29;3.42;;;1.73;;
49223;SDS011;35050;51.316;5.994;2023-08-24T13:00:56;4.18;;;1.88;;
49223;SDS011;35050;51.316;5.994;2023-08-24T13:03:21;2.35;;;1.73;;
49223;SDS011;35050;51.316;5.994;2023-08-24T13:05:47;2.58;;;1.70;;
49223;SDS011;35050;51.316;5.994;2023-08-24T13:08:13;3.88;;;1.52;;
49223;SDS011;35050;51.316;5.994;2023-08-24T13:10:38;2.88;;;1.83;;
49223;SDS011;35050;51.316;5.994;2023-08-24T13:13:04;4.75;;;1.98;;
49223;SDS011;35050;51.316;5.994;2023-08-24T13:15:30;4.80;;;1.95;;
49223;SDS011;35050;51.316;5.994;2023-08-24T13:17:55;3.28;;;2.05;;
49223;SDS011;35050;51.316;5.994;2023-08-24T13:20:22;6.82;;;1.98;;
49223;SDS011;35050;51.316;5.994;2023-08-24T13:22:48;1.98;;;1.70;;
49223;SDS011;35050;51.316;5.994;2023-08-24T13:25:14;2.88;;;1.88;;
49223;SDS011;35050;51.316;5.994;2023-08-24T13:27:39;2.72;;;1.63;;
49223;SDS011;35050;51.316;5.994;2023-08-24T13:30:05;3.40;;;1.40;;
49223;SDS011;35050;51.316;5.994;2023-08-24T13:32:31;3.53;;;1.73;;
49223;SDS011;35050;51.316;5.994;2023-08-24T13:34:57;2.85;;;1.58;;
49223;SDS011;35050;51.316;5.994;2023-08-24T13:37:23;3.53;;;1.80;;
49223;SDS011;35050;51.316;5.994;2023-08-24T13:39:49;2.97;;;1.98;;
49223;SDS011;35050;51.316;5.994;2023-08-24T13:42:16;3.85;;;2.00;;
49223;SDS011;35050;51.316;5.994;2023-08-24T13:44:42;2.67;;;1.65;;
49223;SDS011;35050;51.316;5.994;2023-08-24T13:47:08;3.97;;;2.00;;
49223;SDS011;35050;51.316;5.994;2023-08-24T13:49:33;3.92;;;2.00;;
49223;SDS011;35050;51.316;5.994;2023-08-24T13:51:59;3.85;;;1.80;;
49223;SDS011;35050;51.316;5.994;2023-08-24T13:54:25;3.97;;;1.90;;
49223;SDS011;35050;51.316;5.994;2023-08-24T13:56:51;3.80;;;2.00;;
49223;SDS011;35050;51.316;5.994;2023-08-24T13:59:19;3.10;;;1.85;;
49223;SDS011;35050;51.316;5.994;2023-08-24T14:01:46;3.20;;;1.90;;
49223;SDS011;35050;51.316;5.994;2023-08-24T14:04:11;5.05;;;2.08;;
49223;SDS011;35050;51.316;5.994;2023-08-24T14:06:37;3.15;;;2.00;;
49223;SDS011;35050;51.316;5.994;2023-08-24T14:09:03;1.77;;;1.60;;
49223;SDS011;35050;51.316;5.994;2023-08-24T14:11:29;3.42;;;1.95;;
49223;SDS011;35050;51.316;5.994;2023-08-24T14:13:55;1.73;;;1.63;;
49223;SDS011;35050;51.316;5.994;2023-08-24T14:16:22;2.17;;;1.50;;
49223;SDS011;35050;51.316;5.994;2023-08-24T14:18:47;3.40;;;1.83;;
49223;SDS011;35050;51.316;5.994;2023-08-24T14:21:14;3.38;;;2.05;;
49223;SDS011;35050;51.316;5.994;2023-08-24T14:23:40;2.75;;;1.88;;
49223;SDS011;35050;51.316;5.994;2023-08-24T14:26:06;2.85;;;1.92;;
49223;SDS011;35050;51.316;5.994;2023-08-24T14:28:51;3.08;;;1.48;;
49223;SDS011;35050;51.316;5.994;2023-08-24T14:31:24;3.17;;;1.70;;
49223;SDS011;35050;51.316;5.994;2023-08-24T14:33:51;2.15;;;1.58;;
49223;SDS011;35050;51.316;5.994;2023-08-24T14:36:17;3.67;;;1.73;;
49223;SDS011;35050;51.316;5.994;2023-08-24T14:38:45;2.53;;;1.80;;
49223;SDS011;35050;51.316;5.994;2023-08-24T14:41:12;5.88;;;1.90;;
49223;SDS011;35050;51.316;5.994;2023-08-24T14:43:38;5.28;;;2.20;;
49223;SDS011;35050;51.316;5.994;2023-08-24T14:46:04;5.28;;;2.13;;
49223;SDS011;35050;51.316;5.994;2023-08-24T14:48:31;2.75;;;2.10;;
49223;SDS011;35050;51.316;5.994;2023-08-24T14:50:57;4.82;;;1.90;;
49223;SDS011;35050;51.316;5.994;2023-08-24T14:53:23;2.53;;;1.80;;
49223;SDS011;35050;51.316;5.994;2023-08-24T14:55:49;6.25;;;2.15;;
49223;SDS011;35050;51.316;5.994;2023-08-24T14:58:15;2.90;;;2.05;;
49223;SDS011;35050;51.316;5.994;2023-08-24T15:00:42;5.20;;;1.88;;
49223;SDS011;35050;51.316;5.994;2023-08-24T15:03:10;2.95;;;1.50;;